Time;durP1;ratioP1;P1;durP2;ratioP2;P2;SDS_P1;SDS_P2;PMS_P1;PMS_P2;Temp;Humidity;BMP_temperature;BMP_pressure;BME280_temperature;BME280_humidity;BME280_pressure;Samples;Min_cycle;Max_cycle;Signal;HPM_P1;HPM_P2
2023/10/12 00:01:25;;;;;;;44.75;18.10;;;17.50;99.90;;;;;;5050591;28;20017;-74
2023/10/12 00:03:58;;;;;;;43.00;17.50;;;17.50;99.90;;;;;;5051272;28;20434;-74
2023/10/12 00:06:26;;;;;;;43.83;17.45;;;17.40;99.90;;;;;;5050953;28;20025;-74
2023/10/12 00:08:52;;;;;;;45.65;16.90;;;17.40;99.90;;;;;;5050838;28;20553;-74
2023/10/12 00:11:20;;;;;;;45.08;16.30;;;17.30;99.90;;;;;;5050936;28;20114;-74
2023/10/12 00:13:47;;;;;;;44.53;15.85;;;17.30;99.90;;;;;;5050552;28;20485;-74
2023/10/12 00:16:18;;;;;;;45.80;14.60;;;17.30;99.90;;;;;;5043750;28;20581;-74
2023/10/12 00:18:45;;;;;;;44.40;15.25;;;17.20;99.90;;;;;;5045577;28;20036;-74
2023/10/12 00:21:15;;;;;;;46.75;15.10;;;17.20;99.90;;;;;;5050772;28;20547;-73
2023/10/12 00:23:43;;;;;;;44.05;15.90;;;17.20;99.90;;;;;;5050701;28;20359;-73
2023/10/12 00:26:09;;;;;;;43.03;12.75;;;17.10;99.90;;;;;;5050870;28;20040;-73
2023/10/12 00:28:44;;;;;;;36.33;12.73;;;17.10;99.90;;;;;;5050222;28;20020;-73
2023/10/12 00:31:18;;;;;;;30.80;11.43;;;17.10;99.90;;;;;;5050718;28;20020;-74
2023/10/12 00:33:46;;;;;;;36.88;10.82;;;17.00;99.90;;;;;;5050064;28;20029;-73
2023/10/12 00:36:24;;;;;;;28.80;10.32;;;17.00;99.90;;;;;;5050457;28;20497;-74
2023/10/12 00:38:56;;;;;;;32.80;9.52;;;16.90;99.90;;;;;;5044453;28;20100;-74
2023/10/12 00:41:24;;;;;;;33.88;9.25;;;16.90;99.90;;;;;;5050073;28;20029;-74
2023/10/12 00:46:40;;;;;;;28.45;9.52;;;16.80;99.90;;;;;;5046723;28;20466;-74
2023/10/12 00:51:51;;;;;;;23.35;8.55;;;16.70;99.90;;;;;;5050141;28;20409;-74
2023/10/12 00:54:32;;;;;;;26.30;8.52;;;16.70;99.90;;;;;;5039188;28;20033;-74
2023/10/12 00:57:11;;;;;;;28.55;8.52;;;16.70;99.90;;;;;;5050131;28;20021;-74
2023/10/12 00:59:39;;;;;;;25.63;7.65;;;16.70;99.90;;;;;;5049841;28;20021;-73
2023/10/12 01:02:11;;;;;;;27.40;8.05;;;16.70;99.90;;;;;;5047138;28;20021;-73
2023/10/12 01:04:46;;;;;;;28.02;8.10;;;16.60;99.90;;;;;;5050591;28;20025;-73
2023/10/12 01:07:19;;;;;;;30.33;8.73;;;16.60;99.90;;;;;;5049608;28;20501;-73
2023/10/12 01:09:48;;;;;;;27.15;8.30;;;16.60;99.90;;;;;;5050568;28;20108;-74
2023/10/12 01:12:14;;;;;;;24.77;7.85;;;16.60;99.90;;;;;;5050210;28;20027;-74
2023/10/12 01:14:47;;;;;;;26.20;8.32;;;16.60;99.90;;;;;;5045337;28;20029;-74
2023/10/12 01:17:17;;;;;;;30.20;8.60;;;16.60;99.90;;;;;;5048052;28;20075;-74
2023/10/12 01:19:47;;;;;;;27.58;7.97;;;16.60;99.90;;;;;;5041880;28;20021;-74
2023/10/12 01:22:25;;;;;;;21.45;7.75;;;16.60;99.90;;;;;;5049304;28;20496;-74
2023/10/12 01:27:21;;;;;;;23.27;7.78;;;16.60;99.90;;;;;;5034490;28;20037;-74
2023/10/12 01:29:48;;;;;;;22.42;7.35;;;16.60;99.90;;;;;;5047505;28;20032;-74
2023/10/12 01:32:24;;;;;;;26.05;7.50;;;16.60;99.90;;;;;;5038574;28;20025;-74
2023/10/12 01:34:53;;;;;;;23.70;7.32;;;16.60;99.90;;;;;;5046837;28;20100;-74
2023/10/12 01:37:23;;;;;;;26.05;7.70;;;16.60;99.90;;;;;;5049648;28;20476;-74
2023/10/12 01:39:57;;;;;;;22.63;7.28;;;16.60;99.90;;;;;;5039849;28;20021;-74
2023/10/12 01:42:50;;;;;;;29.33;8.27;;;16.60;99.90;;;;;;5053770;28;20435;-74
2023/10/12 01:45:24;;;;;;;21.35;7.07;;;16.60;99.90;;;;;;5044425;28;20263;-74
2023/10/12 01:48:13;;;;;;;20.23;7.00;;;16.60;99.90;;;;;;5053824;28;20025;-74
2023/10/12 01:50:37;;;;;;;25.67;6.90;;;16.60;99.90;;;;;;5050940;28;20036;-74
2023/10/12 01:53:29;;;;;;;19.40;6.35;;;16.60;99.90;;;;;;5053644;28;20571;-74
2023/10/12 01:55:55;;;;;;;19.23;7.20;;;16.60;99.90;;;;;;5046653;28;20021;-75
2023/10/12 01:58:28;;;;;;;19.52;7.10;;;16.60;99.90;;;;;;5053534;28;20021;-74
2023/10/12 02:01:05;;;;;;;23.48;6.95;;;16.60;99.90;;;;;;5048036;28;20036;-74
2023/10/12 02:03:32;;;;;;;20.98;6.55;;;16.60;99.90;;;;;;5048263;28;20025;-74
2023/10/12 02:06:13;;;;;;;24.20;6.57;;;16.60;99.90;;;;;;5042398;28;20064;-74
2023/10/12 02:08:40;;;;;;;22.23;5.90;;;16.60;99.90;;;;;;5053687;28;20028;-74
2023/10/12 02:11:26;;;;;;;19.73;5.45;;;16.70;99.90;;;;;;5040820;28;20067;-74
2023/10/12 02:13:54;;;;;;;16.42;5.72;;;16.60;99.90;;;;;;5040207;28;20443;-74
2023/10/12 02:16:24;;;;;;;16.13;5.40;;;16.60;99.90;;;;;;5050637;28;20025;-74
2023/10/12 02:18:50;;;;;;;13.05;5.05;;;16.60;99.90;;;;;;5044323;28;20052;-74
2023/10/12 02:21:22;;;;;;;13.85;5.13;;;16.60;99.90;;;;;;5052184;28;20021;-74
2023/10/12 02:23:57;;;;;;;12.68;4.80;;;16.70;99.90;;;;;;5052210;28;20017;-74
2023/10/12 02:26:31;;;;;;;17.95;4.18;;;16.60;99.90;;;;;;5051421;28;20035;-74
2023/10/12 02:31:39;;;;;;;10.75;4.10;;;16.60;99.90;;;;;;5042647;28;20028;-74
2023/10/12 02:34:06;;;;;;;14.82;4.15;;;16.60;99.90;;;;;;5052222;28;20029;-74
2023/10/12 02:36:32;;;;;;;12.07;3.88;;;16.60;99.90;;;;;;5052546;28;20025;-73
2023/10/12 02:38:59;;;;;;;11.45;3.83;;;16.60;99.90;;;;;;5051710;28;20037;-74
2023/10/12 02:41:25;;;;;;;10.15;3.80;;;16.60;99.90;;;;;;5046179;28;20017;-74
2023/10/12 02:43:55;;;;;;;10.70;3.85;;;16.60;99.90;;;;;;5052243;28;20029;-74
2023/10/12 02:46:25;;;;;;;6.90;3.63;;;16.60;99.90;;;;;;5039788;28;20078;-74
2023/10/12 02:48:53;;;;;;;8.55;3.55;;;16.60;99.90;;;;;;5051896;28;20075;-74
2023/10/12 02:51:22;;;;;;;14.75;4.03;;;16.60;99.90;;;;;;5051275;28;20452;-74
2023/10/12 02:53:48;;;;;;;11.48;3.60;;;16.60;99.90;;;;;;5052026;28;20543;-74
2023/10/12 02:56:24;;;;;;;9.43;3.80;;;16.60;99.90;;;;;;5050104;28;20021;-74
2023/10/12 02:58:50;;;;;;;9.75;3.88;;;16.60;99.90;;;;;;5052435;28;20457;-74
2023/10/12 03:01:19;;;;;;;8.93;3.58;;;16.60;99.90;;;;;;5051846;28;20070;-74
2023/10/12 03:03:48;;;;;;;9.13;3.92;;;16.60;99.90;;;;;;5040584;28;20075;-74
2023/10/12 03:06:20;;;;;;;10.73;4.32;;;16.60;99.90;;;;;;5052038;28;20076;-74
2023/10/12 03:09:02;;;;;;;15.73;4.35;;;16.60;99.90;;;;;;5050936;28;20028;-74
2023/10/12 03:11:29;;;;;;;14.70;5.22;;;16.60;99.90;;;;;;5051507;28;20489;-74
2023/10/12 03:14:01;;;;;;;9.32;4.28;;;16.60;99.90;;;;;;5049133;28;20028;-74
2023/10/12 03:16:34;;;;;;;12.77;5.13;;;16.60;99.90;;;;;;5050424;28;20025;-74
2023/10/12 03:19:00;;;;;;;14.38;5.60;;;16.60;99.90;;;;;;5050523;28;20370;-74
2023/10/12 03:21:33;;;;;;;13.32;6.30;;;16.60;99.90;;;;;;5051180;28;20021;-74
2023/10/12 03:24:02;;;;;;;16.33;6.50;;;16.60;99.90;;;;;;5066246;28;20029;-74
2023/10/12 03:26:28;;;;;;;12.95;5.72;;;16.60;99.90;;;;;;5051673;28;20123;-74
2023/10/12 03:29:18;;;;;;;16.08;6.60;;;16.60;99.90;;;;;;5050029;28;20108;-74
2023/10/12 03:34:20;;;;;;;17.88;7.20;;;16.60;99.90;;;;;;5050570;28;20075;-74
2023/10/12 03:36:49;;;;;;;17.75;7.82;;;16.60;99.90;;;;;;5051155;28;20449;-74
2023/10/12 03:39:25;;;;;;;17.52;8.13;;;16.60;99.90;;;;;;5032612;28;20482;-74
2023/10/12 03:42:11;;;;;;;22.27;8.95;;;16.60;99.90;;;;;;5045408;28;20037;-74
2023/10/12 03:47:15;;;;;;;24.58;9.57;;;16.60;99.90;;;;;;5039995;28;20112;-73
2023/10/12 03:52:19;;;;;;;15.00;7.47;;;16.60;99.90;;;;;;5050638;28;20041;-73
2023/10/12 03:54:55;;;;;;;19.05;8.15;;;16.60;99.90;;;;;;5045490;28;20531;-74
2023/10/12 04:05:16;;;;;;;14.65;8.20;;;16.60;99.90;;;;;;5050729;28;20116;-74
2023/10/12 04:18:33;;;;;;;15.23;7.20;;;16.60;99.90;;;;;;5050337;28;20033;-74
2023/10/12 04:21:02;;;;;;;18.17;7.43;;;16.60;99.90;;;;;;5049882;28;20055;-74
2023/10/12 04:28:52;;;;;;;13.05;6.22;;;16.60;99.90;;;;;;5050179;28;20025;-73
2023/10/12 04:31:21;;;;;;;15.43;6.95;;;16.50;99.90;;;;;;5048659;28;20033;-74
2023/10/12 04:34:06;;;;;;;13.88;6.03;;;16.50;99.90;;;;;;5043440;28;20138;-74
2023/10/12 04:36:43;;;;;;;11.68;6.43;;;16.50;99.90;;;;;;5048824;28;20037;-74
2023/10/12 04:39:27;;;;;;;16.42;7.55;;;16.50;99.90;;;;;;5049786;28;20107;-74
2023/10/12 04:42:20;;;;;;;16.20;7.57;;;16.50;99.90;;;;;;5042628;28;20037;-74
2023/10/12 04:45:02;;;;;;;15.30;7.30;;;16.50;99.90;;;;;;5048430;28;20083;-73
2023/10/12 04:47:30;;;;;;;14.70;7.05;;;16.50;99.90;;;;;;5048383;28;20064;-73
2023/10/12 04:49:57;;;;;;;16.73;7.97;;;16.50;99.90;;;;;;5047315;28;20069;-74
2023/10/12 04:52:32;;;;;;;18.15;7.38;;;16.60;99.90;;;;;;5049944;28;20053;-73
2023/10/12 04:54:59;;;;;;;10.93;5.97;;;16.50;99.90;;;;;;5047909;28;20040;-73
2023/10/12 04:57:32;;;;;;;12.68;5.55;;;16.50;99.90;;;;;;5048311;28;20017;-73
2023/10/12 05:02:38;;;;;;;10.48;5.85;;;16.50;99.90;;;;;;5043988;28;20466;-73
2023/10/12 05:07:53;;;;;;;14.90;9.23;;;16.40;99.90;;;;;;5049714;28;20029;-73
2023/10/12 05:10:26;;;;;;;16.55;10.07;;;16.30;99.90;;;;;;5049114;28;20370;-73
2023/10/12 05:12:57;;;;;;;17.27;10.52;;;16.30;99.90;;;;;;5049800;28;20041;-73
2023/10/12 05:15:30;;;;;;;16.65;10.32;;;16.30;99.90;;;;;;5043471;28;20090;-73
2023/10/12 05:17:59;;;;;;;17.33;10.15;;;16.30;99.90;;;;;;5047344;28;20029;-73
2023/10/12 05:20:25;;;;;;;16.23;9.50;;;16.20;99.90;;;;;;5043223;28;20029;-74
2023/10/12 05:22:50;;;;;;;14.52;9.35;;;16.20;99.90;;;;;;5047977;28;20033;-74
2023/10/12 05:25:16;;;;;;;13.40;8.60;;;16.20;99.90;;;;;;5043058;28;20025;-74
2023/10/12 05:28:04;;;;;;;12.57;7.18;;;16.20;99.90;;;;;;5047738;28;20021;-73
2023/10/12 05:30:30;;;;;;;9.02;6.40;;;16.10;99.90;;;;;;5041608;28;20486;-74
2023/10/12 05:32:56;;;;;;;9.20;5.97;;;16.10;99.90;;;;;;5048005;28;20028;-73
2023/10/12 05:35:46;;;;;;;7.30;4.85;;;16.00;99.90;;;;;;5042700;28;20044;-74
2023/10/12 05:38:07;;;;;;;;;;;16.00;99.90;;;;;;5043977;28;20370;-73
2023/10/12 05:40:35;;;;;;;4.68;3.40;;;15.90;99.90;;;;;;5048788;28;20169;-73
2023/10/12 05:43:09;;;;;;;5.38;3.30;;;15.80;99.90;;;;;;5042148;28;20108;-73
2023/10/12 05:45:34;;;;;;;4.15;2.70;;;15.80;99.90;;;;;;5043577;28;20037;-73
2023/10/12 05:48:00;;;;;;;6.20;2.60;;;15.80;99.90;;;;;;5036495;28;20025;-73
2023/10/12 05:50:26;;;;;;;4.10;2.63;;;15.80;99.90;;;;;;5047170;28;20104;-73
2023/10/12 05:53:01;;;;;;;3.90;2.50;;;15.70;99.90;;;;;;5047386;28;20090;-73
2023/10/12 05:55:27;;;;;;;3.33;2.53;;;15.80;99.90;;;;;;5044788;28;20025;-73
2023/10/12 05:58:03;;;;;;;4.50;2.60;;;15.70;99.90;;;;;;5044644;28;20029;-73
2023/10/12 06:00:35;;;;;;;2.30;1.42;;;15.70;99.90;;;;;;5044918;28;20044;-73
2023/10/12 06:03:05;;;;;;;1.58;0.93;;;15.70;99.90;;;;;;5038803;28;20025;-73
2023/10/12 06:05:32;;;;;;;1.30;0.70;;;15.60;99.90;;;;;;5047054;28;20059;-73
2023/10/12 06:08:00;;;;;;;1.52;0.90;;;15.60;99.90;;;;;;5041572;28;20017;-74
2023/10/12 06:10:29;;;;;;;2.15;1.00;;;15.50;99.90;;;;;;5044630;28;20370;-74
2023/10/12 06:12:58;;;;;;;1.52;1.15;;;15.50;99.90;;;;;;5046472;28;20021;-73
2023/10/12 06:15:30;;;;;;;2.50;1.23;;;15.40;99.90;;;;;;5041613;28;20050;-73
2023/10/12 06:17:56;;;;;;;2.33;1.48;;;15.40;99.90;;;;;;5046110;28;20436;-74
2023/10/12 06:20:36;;;;;;;2.25;1.50;;;15.40;99.90;;;;;;5037834;28;20021;-75
2023/10/12 06:23:08;;;;;;;4.32;1.63;;;15.40;99.90;;;;;;5036331;28;20021;-74
2023/10/12 06:25:38;;;;;;;3.80;2.15;;;15.40;99.90;;;;;;5044320;28;20593;-74
2023/10/12 06:28:14;;;;;;;3.85;2.13;;;15.40;99.90;;;;;;5049241;28;21627;-74
2023/10/12 06:30:47;;;;;;;4.32;2.20;;;15.40;99.90;;;;;;5049714;28;20082;-74
2023/10/12 06:33:17;;;;;;;3.97;2.15;;;15.40;99.90;;;;;;5050111;28;20028;-74
2023/10/12 06:35:59;;;;;;;3.95;2.55;;;15.40;99.90;;;;;;5048084;28;20033;-74
2023/10/12 06:38:48;;;;;;;5.82;2.40;;;15.40;99.90;;;;;;5042273;28;20481;-74
2023/10/12 06:46:48;;;;;;;4.75;2.10;;;15.40;99.90;;;;;;5052971;28;21800;-74
2023/10/12 06:49:22;;;;;;;3.53;2.13;;;15.40;99.90;;;;;;5047983;28;20021;-74
2023/10/12 06:51:54;;;;;;;3.33;1.95;;;15.40;99.90;;;;;;5050435;28;20057;-74
2023/10/12 06:54:33;;;;;;;5.43;2.00;;;15.30;99.90;;;;;;5050257;28;20036;-74
2023/10/12 06:59:53;;;;;;;4.75;2.65;;;15.20;99.90;;;;;;5050351;28;20108;-73
2023/10/12 07:02:25;;;;;;;4.10;2.35;;;15.20;99.90;;;;;;5051008;28;20048;-74
2023/10/12 07:04:53;;;;;;;3.58;2.47;;;15.20;99.90;;;;;;5051048;28;20154;-74
2023/10/12 07:07:30;;;;;;;3.53;2.55;;;15.20;99.90;;;;;;5051917;28;20478;-73
2023/10/12 07:12:37;;;;;;;5.05;2.67;;;15.20;99.90;;;;;;5051513;28;20017;-73
2023/10/12 07:15:10;;;;;;;7.95;2.85;;;15.20;99.90;;;;;;5049281;28;20370;-73
2023/10/12 07:17:36;;;;;;;5.78;2.65;;;15.20;99.90;;;;;;5047875;28;20061;-74
2023/10/12 07:20:06;;;;;;;6.32;2.83;;;15.20;99.90;;;;;;5044349;28;20029;-74
2023/10/12 07:22:38;;;;;;;5.43;2.58;;;15.20;99.90;;;;;;5052701;28;20018;-73
2023/10/12 07:25:04;;;;;;;4.00;2.38;;;15.20;99.90;;;;;;5058845;28;20036;-74
2023/10/12 07:27:48;;;;;;;5.85;2.72;;;15.20;99.90;;;;;;5054450;28;20027;-73
2023/10/12 07:30:22;;;;;;;5.75;2.67;;;15.10;99.90;;;;;;5049035;28;20048;-73
2023/10/12 07:32:59;;;;;;;5.35;2.90;;;15.10;99.90;;;;;;5052779;28;20037;-74
2023/10/12 07:35:42;;;;;;;8.25;3.05;;;15.10;99.90;;;;;;5042215;28;20044;-74
2023/10/12 07:38:27;;;;;;;6.93;3.30;;;15.10;99.90;;;;;;5056175;28;20029;-74
2023/10/12 07:43:19;;;;;;;6.20;2.92;;;15.00;99.90;;;;;;5056960;28;20029;-74
2023/10/12 07:45:48;;;;;;;7.15;3.42;;;15.00;99.90;;;;;;5054763;28;20025;-74
2023/10/12 07:48:39;;;;;;;9.20;3.78;;;15.00;99.90;;;;;;5056496;28;20033;-74
2023/10/12 07:51:53;;;;;;;7.03;3.70;;;15.10;99.90;;;;;;5055283;28;20145;-74
2023/10/12 07:54:25;;;;;;;6.60;3.60;;;15.10;99.90;;;;;;5051822;28;20037;-74
2023/10/12 07:56:52;;;;;;;5.82;3.88;;;15.10;99.90;;;;;;5052682;28;20029;-74
2023/10/12 07:59:22;;;;;;;8.38;4.22;;;15.10;99.90;;;;;;5051289;28;20029;-74
2023/10/12 08:01:50;;;;;;;6.85;4.18;;;15.10;99.90;;;;;;5046684;28;20087;-74
2023/10/12 08:04:32;;;;;;;7.80;4.65;;;15.10;99.90;;;;;;5051047;28;20025;-74
2023/10/12 08:06:59;;;;;;;6.47;4.57;;;15.10;99.90;;;;;;5046207;28;20021;-74
2023/10/12 08:11:51;;;;;;;7.88;4.47;;;15.10;99.90;;;;;;5050510;28;20053;-74
2023/10/12 08:17:25;;;;;;;8.73;3.70;;;15.10;99.90;;;;;;5050607;28;20029;-74
2023/10/12 08:19:43;;;;;;;5.45;3.80;;;15.20;99.90;;;;;;5037732;28;20042;-74
2023/10/12 08:22:17;;;;;;;6.88;3.83;;;15.20;99.90;;;;;;5037239;28;20029;-74
2023/10/12 08:24:45;;;;;;;5.53;3.70;;;15.20;99.90;;;;;;5049248;28;20474;-74
2023/10/12 08:27:12;;;;;;;4.95;3.22;;;15.20;99.90;;;;;;5049037;28;20659;-74
2023/10/12 08:39:37;;;;;;;6.50;4.03;;;15.40;99.90;;;;;;5045714;28;20115;-74
2023/10/12 08:44:49;;;;;;;5.40;3.55;;;15.40;99.90;;;;;;5045832;28;20045;-73
2023/10/12 08:52:27;;;;;;;3.45;2.90;;;15.30;99.90;;;;;;5049767;28;20556;-74
2023/10/12 08:54:58;;;;;;;5.22;3.20;;;15.30;99.90;;;;;;5050109;28;20040;-73
2023/10/12 08:57:37;;;;;;;4.22;2.63;;;15.30;99.90;;;;;;5044221;28;20074;-74
2023/10/12 09:03:00;;;;;;;4.35;2.70;;;15.30;99.90;;;;;;5049884;28;20495;-74
2023/10/12 09:05:33;;;;;;;6.20;2.88;;;15.30;99.90;;;;;;5049519;28;20029;-74
2023/10/12 09:13:28;;;;;;;3.85;2.53;;;15.30;99.90;;;;;;5049579;28;20078;-74
2023/10/12 09:15:56;;;;;;;3.33;2.67;;;15.30;99.90;;;;;;5049927;28;20033;-73
2023/10/12 09:18:30;;;;;;;4.05;2.33;;;15.30;99.90;;;;;;5049259;28;20465;-74
2023/10/12 09:21:17;;;;;;;2.35;1.90;;;15.30;99.90;;;;;;5045963;28;20040;-73
2023/10/12 09:23:58;;;;;;;3.83;2.50;;;15.30;99.90;;;;;;5049763;28;20025;-73
2023/10/12 09:26:34;;;;;;;2.92;2.10;;;15.30;99.90;;;;;;5047921;28;20029;-73
2023/10/12 09:36:44;;;;;;;3.72;2.53;;;15.40;99.90;;;;;;5050187;28;20025;-73
2023/10/12 09:39:14;;;;;;;5.07;2.35;;;15.30;99.90;;;;;;5049284;28;20025;-74
2023/10/12 09:41:41;;;;;;;3.30;2.50;;;15.30;99.90;;;;;;5049137;28;20025;-74
2023/10/12 09:44:11;;;;;;;4.72;2.88;;;15.30;99.90;;;;;;5045657;28;20033;-74
2023/10/12 09:46:46;;;;;;;4.88;2.90;;;15.30;99.90;;;;;;5046296;28;20780;-74
2023/10/12 09:49:27;;;;;;;4.82;3.10;;;15.40;99.90;;;;;;5039599;28;20029;-74
2023/10/12 09:52:04;;;;;;;5.05;3.28;;;15.40;99.90;;;;;;5049319;28;20041;-74
2023/10/12 09:54:48;;;;;;;5.45;2.80;;;15.40;99.90;;;;;;5049297;28;20025;-74
2023/10/12 09:57:50;;;;;;;7.03;3.35;;;15.40;99.90;;;;;;5048626;28;20249;-74
2023/10/12 10:03:02;;;;;;;5.30;3.72;;;15.50;99.90;;;;;;5034568;28;20045;-73
2023/10/12 10:06:01;;;;;;;5.00;3.58;;;15.50;99.90;;;;;;5053250;28;20025;-73
2023/10/12 10:08:29;;;;;;;5.60;3.60;;;15.50;99.90;;;;;;5053443;28;20071;-74
2023/10/12 10:10:58;;;;;;;5.60;4.05;;;15.50;99.90;;;;;;5052120;28;20112;-73
2023/10/12 10:13:53;;;;;;;5.60;3.90;;;15.50;99.90;;;;;;5053531;28;20155;-74
2023/10/12 10:16:20;;;;;;;6.05;4.13;;;15.60;99.90;;;;;;5052833;28;20477;-74
2023/10/12 10:18:57;;;;;;;6.28;4.35;;;15.60;99.90;;;;;;5051480;28;20555;-74
2023/10/12 10:21:30;;;;;;;5.22;4.07;;;15.60;99.90;;;;;;5052717;28;20441;-74
2023/10/12 10:23:57;;;;;;;5.93;4.18;;;15.60;99.90;;;;;;5052901;28;20025;-74
2023/10/12 10:26:30;;;;;;;7.18;4.72;;;15.60;99.90;;;;;;5053133;28;20384;-74
2023/10/12 10:29:05;;;;;;;6.70;4.65;;;15.60;99.90;;;;;;5051654;28;20033;-74
2023/10/12 10:31:45;;;;;;;7.53;4.82;;;15.60;99.90;;;;;;5053088;28;20408;-74
2023/10/12 10:34:14;;;;;;;6.60;4.90;;;15.60;99.90;;;;;;5061365;28;20033;-74
2023/10/12 10:36:44;;;;;;;9.05;5.18;;;15.70;99.90;;;;;;5049133;28;20314;-73
2023/10/12 10:39:32;;;;;;;8.48;6.15;;;15.70;99.90;;;;;;5046309;28;20055;-73
2023/10/12 10:42:07;;;;;;;9.13;6.10;;;15.70;99.90;;;;;;5056880;28;20036;-74
2023/10/12 10:44:41;;;;;;;9.27;5.70;;;15.70;99.90;;;;;;5057431;28;20040;-73
2023/10/12 10:47:15;;;;;;;8.90;6.10;;;15.70;99.90;;;;;;5058845;28;20041;-73
2023/10/12 10:49:45;;;;;;;9.00;6.30;;;15.70;99.90;;;;;;5057658;28;20028;-73
2023/10/12 10:52:14;;;;;;;9.88;6.78;;;15.70;99.90;;;;;;5059127;28;20123;-73
2023/10/12 10:54:54;;;;;;;9.75;6.75;;;15.80;99.90;;;;;;5058449;28;20096;-74
2023/10/12 10:57:24;;;;;;;10.38;6.60;;;15.80;99.90;;;;;;5061452;28;20056;-74
2023/10/12 10:59:51;;;;;;;10.90;7.40;;;15.80;99.90;;;;;;5060316;28;20028;-74
2023/10/12 11:02:20;;;;;;;14.13;8.18;;;15.80;99.90;;;;;;5057479;28;20028;-74
2023/10/12 11:04:46;;;;;;;10.95;7.22;;;15.80;99.90;;;;;;5062227;28;20044;-73
2023/10/12 11:07:15;;;;;;;11.95;7.88;;;15.80;99.90;;;;;;5060353;28;20051;-73
2023/10/12 11:12:22;;;;;;;11.52;8.07;;;15.90;99.90;;;;;;5062152;28;20111;-73
2023/10/12 11:14:58;;;;;;;14.63;8.75;;;15.90;99.90;;;;;;5061958;28;20029;-74
2023/10/12 11:17:26;;;;;;;16.20;9.30;;;15.90;99.90;;;;;;5062912;28;20094;-73
2023/10/12 11:19:52;;;;;;;14.63;9.60;;;15.90;99.90;;;;;;5052535;28;20229;-74
2023/10/12 11:22:19;;;;;;;15.00;10.40;;;16.00;99.90;;;;;;5060301;28;20025;-73
2023/10/12 11:24:45;;;;;;;15.45;9.75;;;16.00;99.90;;;;;;5057993;28;20021;-74
2023/10/12 11:27:12;;;;;;;17.35;10.80;;;16.00;99.90;;;;;;5060041;28;20025;-73
2023/10/12 11:29:50;;;;;;;16.90;10.80;;;16.10;99.90;;;;;;5056702;28;20029;-73
2023/10/12 11:32:16;;;;;;;16.83;10.88;;;16.10;99.90;;;;;;5056256;28;20041;-73
2023/10/12 11:34:46;;;;;;;19.90;11.88;;;16.20;99.90;;;;;;5061752;28;20504;-73
2023/10/12 11:37:13;;;;;;;22.88;13.20;;;16.20;99.90;;;;;;5058748;28;20033;-73
2023/10/12 11:39:44;;;;;;;22.10;12.90;;;16.20;99.90;;;;;;5061208;28;20041;-73
2023/10/12 11:42:13;;;;;;;21.55;13.77;;;16.20;99.90;;;;;;5040468;28;20579;-73
2023/10/12 11:44:43;;;;;;;25.52;14.63;;;16.30;99.90;;;;;;5053814;28;20037;-73
2023/10/12 11:47:37;;;;;;;24.65;15.15;;;16.30;99.90;;;;;;5061319;28;20027;-74
2023/10/12 11:50:03;;;;;;;22.85;14.50;;;16.40;99.90;;;;;;5061538;28;20052;-73
2023/10/12 11:52:34;;;;;;;29.17;16.10;;;16.40;99.90;;;;;;5055408;28;20048;-73
2023/10/12 11:55:19;;;;;;;32.13;16.45;;;16.40;99.90;;;;;;5059648;28;20568;-73
2023/10/12 11:57:54;;;;;;;31.92;17.55;;;16.50;99.90;;;;;;5055307;28;20047;-73
2023/10/12 12:00:29;;;;;;;26.30;16.07;;;16.40;99.90;;;;;;5055288;28;20104;-73
2023/10/12 12:03:02;;;;;;;29.63;17.60;;;16.50;99.90;;;;;;5053201;28;20037;-73
2023/10/12 12:05:30;;;;;;;30.92;17.55;;;16.50;99.90;;;;;;5046538;28;20377;-74
2023/10/12 12:07:58;;;;;;;35.20;19.25;;;16.50;99.90;;;;;;5058550;28;20044;-74
2023/10/12 12:13:15;;;;;;;36.60;20.13;;;16.50;99.90;;;;;;5058458;28;20082;-74
2023/10/12 12:15:44;;;;;;;38.50;22.02;;;16.50;99.90;;;;;;5067799;28;20049;-73
2023/10/12 12:18:17;;;;;;;42.00;22.52;;;16.60;99.90;;;;;;5059310;28;20112;-73
2023/10/12 12:20:44;;;;;;;48.53;24.85;;;16.60;99.90;;;;;;5053660;28;20441;-73
2023/10/12 12:23:10;;;;;;;46.33;25.20;;;16.60;99.90;;;;;;5052043;28;20497;-73
2023/10/12 12:25:39;;;;;;;44.58;24.30;;;16.60;99.90;;;;;;5053978;28;20043;-72
2023/10/12 12:28:07;;;;;;;50.00;25.70;;;16.70;99.90;;;;;;5071031;28;20490;-72
2023/10/12 12:30:39;;;;;;;66.15;27.20;;;16.60;99.90;;;;;;5046748;28;20033;-71
2023/10/12 12:33:15;;;;;;;59.60;27.17;;;16.60;99.90;;;;;;5056856;28;20033;-72
2023/10/12 12:35:41;;;;;;;44.80;25.58;;;16.60;99.90;;;;;;5043937;28;20032;-73
2023/10/12 12:38:22;;;;;;;45.85;25.23;;;16.70;99.90;;;;;;5058129;28;20020;-72
2023/10/12 12:40:47;;;;;;;42.38;24.23;;;16.60;99.90;;;;;;5055180;28;20539;-72
2023/10/12 12:43:13;;;;;;;41.33;25.65;;;16.60;99.90;;;;;;5050785;28;20021;-72
2023/10/12 12:45:41;;;;;;;39.13;25.92;;;16.60;99.90;;;;;;5055984;28;20482;-72
2023/10/12 12:48:06;;;;;;;36.03;24.27;;;16.70;99.90;;;;;;5051446;28;20026;-72
2023/10/12 12:50:33;;;;;;;41.63;25.75;;;16.70;99.90;;;;;;5053369;28;20017;-72
2023/10/12 12:52:59;;;;;;;37.25;23.55;;;16.70;99.90;;;;;;5062030;28;20132;-73
2023/10/12 12:55:28;;;;;;;41.17;24.60;;;16.70;99.90;;;;;;5052720;28;20150;-72
2023/10/12 12:57:58;;;;;;;39.78;23.30;;;16.80;99.90;;;;;;5054991;28;20033;-72
2023/10/12 13:00:25;;;;;;;35.58;23.15;;;16.80;99.90;;;;;;5052549;28;20040;-72
2023/10/12 13:02:50;;;;;;;38.85;24.23;;;16.80;99.90;;;;;;5047689;28;20029;-72
2023/10/12 13:05:16;;;;;;;35.88;25.58;;;16.80;99.90;;;;;;5052818;28;20025;-73
2023/10/12 13:07:45;;;;;;;34.80;27.27;;;16.80;99.90;;;;;;5054656;28;20071;-73
2023/10/12 13:10:11;;;;;;;39.22;28.02;;;16.80;99.90;;;;;;5055975;28;20048;-73
2023/10/12 13:12:40;;;;;;;43.10;30.15;;;16.80;99.90;;;;;;5052043;28;20032;-72
2023/10/12 13:15:10;;;;;;;38.90;30.25;;;16.90;99.90;;;;;;5048737;28;20040;-72
2023/10/12 13:17:37;;;;;;;39.58;28.52;;;16.90;99.90;;;;;;5064902;28;20390;-72
2023/10/12 13:20:03;;;;;;;36.13;27.40;;;16.90;99.90;;;;;;5052588;28;20051;-72
2023/10/12 13:22:29;;;;;;;35.22;25.80;;;16.90;99.90;;;;;;5052762;28;20048;-73
2023/10/12 13:24:56;;;;;;;38.90;26.27;;;16.90;99.90;;;;;;5052497;28;20040;-73
2023/10/12 13:27:27;;;;;;;29.15;21.92;;;17.00;99.90;;;;;;5052806;28;20365;-73
2023/10/12 13:30:09;;;;;;;30.80;20.45;;;17.00;99.90;;;;;;5049630;28;20040;-73
2023/10/12 13:32:38;;;;;;;30.45;20.50;;;17.00;99.90;;;;;;5049636;28;20025;-73
2023/10/12 13:38:09;;;;;;;31.48;20.58;;;17.00;99.90;;;;;;5028934;28;20030;-72
2023/10/12 13:40:37;;;;;;;30.55;20.80;;;17.00;99.90;;;;;;5047690;28;20075;-72
2023/10/12 13:43:21;;;;;;;29.20;20.88;;;17.00;99.90;;;;;;5052430;28;20488;-72
2023/10/12 13:45:51;;;;;;;34.50;22.48;;;17.10;99.90;;;;;;5053911;28;20053;-72
2023/10/12 13:48:21;;;;;;;32.50;21.10;;;17.10;99.90;;;;;;5052209;28;20025;-72
2023/10/12 13:51:12;;;;;;;29.02;21.83;;;17.10;99.90;;;;;;5053287;28;20036;-73
2023/10/12 13:53:38;;;;;;;34.33;21.65;;;17.10;99.90;;;;;;5051571;28;20067;-72
2023/10/12 13:56:08;;;;;;;29.20;21.00;;;17.10;99.90;;;;;;5052452;28;20021;-72
2023/10/12 13:58:42;;;;;;;31.25;20.55;;;17.20;99.90;;;;;;5051941;28;20017;-73
2023/10/12 14:01:14;;;;;;;26.30;18.92;;;17.20;99.90;;;;;;5051013;28;20028;-72
2023/10/12 14:03:41;;;;;;;25.67;18.20;;;17.20;99.90;;;;;;5051896;28;20485;-72
2023/10/12 14:06:07;;;;;;;24.58;17.58;;;17.20;99.90;;;;;;5052406;28;20051;-73
2023/10/12 14:08:36;;;;;;;22.70;17.20;;;17.30;99.90;;;;;;5052184;28;20024;-73
2023/10/12 14:11:06;;;;;;;23.17;16.48;;;17.30;99.90;;;;;;5049876;28;20447;-74
2023/10/12 14:13:32;;;;;;;25.55;17.10;;;17.30;99.90;;;;;;5048009;28;20109;-74
2023/10/12 14:15:58;;;;;;;24.45;16.25;;;17.30;99.90;;;;;;5048580;28;20037;-73
2023/10/12 14:18:28;;;;;;;25.90;16.67;;;17.30;99.90;;;;;;5053453;28;20040;-74
2023/10/12 14:20:55;;;;;;;22.75;16.13;;;17.40;99.90;;;;;;5052387;28;20033;-73
2023/10/12 14:23:25;;;;;;;23.85;16.17;;;17.40;99.90;;;;;;5051488;28;20047;-73
2023/10/12 14:25:51;;;;;;;22.80;15.93;;;17.40;99.90;;;;;;5052189;28;20037;-72
2023/10/12 14:28:17;;;;;;;22.08;15.32;;;17.40;99.90;;;;;;5043667;28;20040;-73
2023/10/12 14:30:47;;;;;;;23.17;16.05;;;17.40;99.90;;;;;;5049234;28;20409;-73
2023/10/12 14:33:15;;;;;;;23.45;14.63;;;17.50;99.90;;;;;;5051382;28;20171;-73
2023/10/12 14:35:42;;;;;;;18.52;13.98;;;17.50;99.90;;;;;;5038953;28;20123;-72
2023/10/12 14:38:10;;;;;;;20.02;13.27;;;17.50;99.90;;;;;;5051750;28;20040;-73
2023/10/12 14:40:40;;;;;;;17.52;12.40;;;17.50;99.90;;;;;;5050893;28;20112;-73
2023/10/12 14:43:10;;;;;;;20.38;12.43;;;17.50;99.90;;;;;;5051328;28;20325;-72
2023/10/12 14:45:37;;;;;;;14.70;11.75;;;17.50;99.90;;;;;;5049733;28;20699;-73
2023/10/12 14:48:09;;;;;;;16.52;12.43;;;17.50;99.90;;;;;;5048436;28;20024;-72
2023/10/12 14:50:43;;;;;;;17.73;12.48;;;17.60;99.90;;;;;;5039473;28;20032;-73
2023/10/12 14:53:09;;;;;;;13.82;11.75;;;17.50;99.90;;;;;;5052215;28;20103;-72